createdAt,value
2019-05-19T00:01:47.230Z,99.90
2019-05-19T00:04:17.814Z,99.90
2019-05-19T00:06:48.350Z,99.90
2019-05-19T00:09:18.816Z,99.90
2019-05-19T00:11:49.196Z,99.90
2019-05-19T00:14:19.908Z,99.90
2019-05-19T00:16:50.935Z,99.90
2019-05-19T00:19:26.622Z,99.90
2019-05-19T00:21:53.631Z,99.90
2019-05-19T00:24:24.600Z,99.90
2019-05-19T00:26:55.080Z,99.90
2019-05-19T00:29:25.526Z,99.90
2019-05-19T00:31:56.024Z,99.90
2019-05-19T00:34:26.508Z,99.90
2019-05-19T00:36:56.940Z,99.90
2019-05-19T00:39:27.342Z,99.90
2019-05-19T00:41:57.957Z,99.90
2019-05-19T00:44:28.501Z,99.90
2019-05-19T00:46:59.051Z,99.90
2019-05-19T00:49:40.674Z,99.90
2019-05-19T00:52:01.936Z,99.90
2019-05-19T00:54:34.782Z,99.90
2019-05-19T00:57:05.560Z,99.90
2019-05-19T00:59:38.225Z,99.90
2019-05-19T01:02:08.798Z,99.90
2019-05-19T01:04:39.269Z,99.90
2019-05-19T01:07:09.748Z,99.90
2019-05-19T01:09:40.259Z,99.90
2019-05-19T01:12:10.670Z,99.90
2019-05-19T01:14:41.551Z,99.90
2019-05-19T01:17:12.635Z,99.90
2019-05-19T01:19:55.169Z,99.90
2019-05-19T01:22:15.558Z,99.90
2019-05-19T01:24:48.151Z,99.90
2019-05-19T01:27:19.420Z,99.90
2019-05-19T01:29:50.641Z,99.90
2019-05-19T01:32:21.212Z,99.90
2019-05-19T01:34:51.666Z,99.90
2019-05-19T01:37:22.161Z,99.90
2019-05-19T01:39:52.733Z,99.90
2019-05-19T01:42:23.688Z,99.90
2019-05-19T01:44:54.196Z,99.90
2019-05-19T01:47:24.666Z,99.90
2019-05-19T01:49:55.097Z,99.90
2019-05-19T01:52:25.578Z,99.90
2019-05-19T01:54:56.795Z,99.90
2019-05-19T01:57:27.307Z,99.90
2019-05-19T01:59:57.822Z,99.90
2019-05-19T02:02:28.341Z,99.90
2019-05-19T02:04:58.894Z,99.90
2019-05-19T02:07:29.414Z,99.90
2019-05-19T02:09:59.984Z,99.90
2019-05-19T02:12:30.690Z,99.90
2019-05-19T02:15:01.289Z,99.90
2019-05-19T02:17:31.969Z,99.90
2019-05-19T02:20:02.612Z,99.90
2019-05-19T02:22:33.031Z,99.90
2019-05-19T02:25:03.879Z,99.90
2019-05-19T02:27:34.438Z,99.90
2019-05-19T02:30:08.407Z,99.90
2019-05-19T02:32:39.002Z,99.90
2019-05-19T02:35:10.009Z,99.90
2019-05-19T02:37:40.527Z,99.90
2019-05-19T02:40:18.824Z,99.90
2019-05-19T02:42:52.008Z,99.90
2019-05-19T02:45:25.393Z,99.90
2019-05-19T02:47:59.149Z,99.90
2019-05-19T02:50:50.498Z,99.90
2019-05-19T02:53:06.363Z,99.90
2019-05-19T02:55:39.277Z,99.90
2019-05-19T02:58:12.129Z,99.90
2019-05-19T03:00:43.718Z,99.90
2019-05-19T03:03:14.321Z,99.90
2019-05-19T03:05:46.357Z,99.90
2019-05-19T03:08:16.828Z,99.90
2019-05-19T03:10:47.534Z,99.90
2019-05-19T03:13:17.900Z,99.90
2019-05-19T03:15:48.416Z,99.90
2019-05-19T03:18:20.239Z,99.90
2019-05-19T03:20:51.004Z,99.90
2019-05-19T03:23:21.451Z,99.90
2019-05-19T03:25:51.843Z,99.90
2019-05-19T03:28:24.133Z,99.90
2019-05-19T03:31:05.480Z,99.90
2019-05-19T03:33:37.681Z,99.90
2019-05-19T03:36:08.708Z,99.90
2019-05-19T03:38:39.079Z,99.90
2019-05-19T03:41:09.500Z,99.90
2019-05-19T03:43:39.974Z,99.90
2019-05-19T03:46:10.512Z,99.90
2019-05-19T03:48:43.103Z,99.90
2019-05-19T03:51:29.145Z,99.90
2019-05-19T03:53:47.129Z,99.90
2019-05-19T03:56:20.085Z,99.90
2019-05-19T03:58:50.628Z,99.90
2019-05-19T04:01:21.197Z,99.90
2019-05-19T04:03:53.907Z,99.90
2019-05-19T04:06:24.893Z,99.90
2019-05-19T04:08:55.297Z,99.90
2019-05-19T04:11:25.841Z,99.90
2019-05-19T04:14:03.429Z,99.90
2019-05-19T04:16:34.827Z,99.90
2019-05-19T04:19:05.510Z,99.90
2019-05-19T04:21:48.217Z,99.90
2019-05-19T04:24:10.767Z,99.90
2019-05-19T04:26:41.425Z,99.90
2019-05-19T04:29:11.809Z,99.90
2019-05-19T04:31:42.303Z,99.90
2019-05-19T04:34:12.789Z,99.90
2019-05-19T04:36:43.229Z,99.90
2019-05-19T04:39:13.871Z,99.90
2019-05-19T04:41:44.370Z,99.90
2019-05-19T04:44:14.852Z,99.90
2019-05-19T04:46:46.185Z,99.90
2019-05-19T04:49:18.655Z,99.90
2019-05-19T04:52:05.400Z,99.90
2019-05-19T04:54:22.503Z,99.90
2019-05-19T04:56:54.517Z,99.90
2019-05-19T04:59:25.535Z,99.90
2019-05-19T05:01:58.965Z,99.90
2019-05-19T05:04:29.872Z,99.90
2019-05-19T05:07:02.761Z,99.90
2019-05-19T05:09:33.303Z,99.90
2019-05-19T05:12:04.034Z,99.90
2019-05-19T05:14:34.744Z,99.90
2019-05-19T05:17:05.401Z,99.90
2019-05-19T05:19:36.793Z,99.90
2019-05-19T05:22:21.250Z,99.90
2019-05-19T05:24:41.350Z,99.90
2019-05-19T05:27:12.197Z,99.90
2019-05-19T05:29:42.677Z,99.90
2019-05-19T05:32:13.182Z,99.90
2019-05-19T05:34:43.637Z,99.90
2019-05-19T05:37:14.303Z,99.90
2019-05-19T05:39:44.980Z,99.90
2019-05-19T05:42:15.375Z,99.90
2019-05-19T05:44:45.935Z,99.90
2019-05-19T05:47:16.391Z,99.90
2019-05-19T05:49:50.157Z,99.90
2019-05-19T05:52:19.991Z,99.90
2019-05-19T05:54:51.234Z,99.90
2019-05-19T05:57:23.369Z,99.90
2019-05-19T05:59:53.811Z,99.90
2019-05-19T06:02:24.493Z,99.90
2019-05-19T06:04:54.899Z,99.90
2019-05-19T06:07:25.359Z,99.90
2019-05-19T06:09:55.837Z,99.90
2019-05-19T06:12:26.243Z,99.90
2019-05-19T06:14:56.701Z,99.80
2019-05-19T06:17:27.104Z,98.20
2019-05-19T06:19:57.480Z,98.00
2019-05-19T06:22:27.887Z,96.90
2019-05-19T06:24:59.200Z,97.20
2019-05-19T06:27:29.767Z,96.50
2019-05-19T06:30:00.228Z,94.90
2019-05-19T06:32:32.581Z,94.50
2019-05-19T06:35:03.356Z,92.80
2019-05-19T06:37:34.952Z,91.20
2019-05-19T06:40:07.770Z,88.80
2019-05-19T06:42:39.077Z,86.60
2019-05-19T06:45:10.385Z,83.70
2019-05-19T06:47:42.535Z,83.10
2019-05-19T06:50:14.959Z,81.80
2019-05-19T06:52:46.310Z,81.40
2019-05-19T06:55:17.652Z,81.10
2019-05-19T06:57:49.044Z,79.00
2019-05-19T07:00:21.264Z,78.00
2019-05-19T07:02:52.819Z,76.50
2019-05-19T07:05:23.268Z,76.70
2019-05-19T07:07:55.041Z,74.40
2019-05-19T07:10:25.513Z,74.10
2019-05-19T07:12:56.589Z,75.50
2019-05-19T07:15:27.126Z,75.00
2019-05-19T07:17:58.710Z,73.90
2019-05-19T07:20:29.215Z,74.10
2019-05-19T07:22:59.589Z,74.30
2019-05-19T07:25:30.076Z,73.10
2019-05-19T07:28:01.045Z,72.10
2019-05-19T07:30:31.916Z,74.30
2019-05-19T07:33:03.560Z,76.00
2019-05-19T07:35:34.032Z,73.30
2019-05-19T07:38:07.365Z,72.00
2019-05-19T07:40:38.310Z,70.90
2019-05-19T07:43:08.726Z,72.20
2019-05-19T07:45:39.328Z,70.10
2019-05-19T07:48:09.763Z,70.70
2019-05-19T07:50:40.213Z,71.80
2019-05-19T07:53:10.616Z,73.20
2019-05-19T07:55:41.178Z,73.20
2019-05-19T07:58:12.467Z,73.10
2019-05-19T08:00:43.265Z,73.70
2019-05-19T08:03:13.633Z,76.20
2019-05-19T08:05:45.210Z,73.20
2019-05-19T08:08:15.654Z,70.70
2019-05-19T08:10:46.293Z,72.90
2019-05-19T08:13:16.778Z,75.10
2019-05-19T08:15:48.484Z,76.50
2019-05-19T08:18:19.129Z,77.70
2019-05-19T08:20:50.525Z,77.00
2019-05-19T08:23:21.093Z,76.20
2019-05-19T08:25:52.708Z,74.90
2019-05-19T08:28:23.608Z,69.50
2019-05-19T08:30:54.056Z,67.50
2019-05-19T08:33:24.964Z,66.30
2019-05-19T08:35:55.419Z,65.60
2019-05-19T08:38:26.778Z,66.10
2019-05-19T08:40:57.323Z,68.20
2019-05-19T08:43:27.966Z,70.60
2019-05-19T08:45:58.472Z,70.70
2019-05-19T08:48:29.015Z,71.00
2019-05-19T08:50:59.850Z,69.80
2019-05-19T08:53:30.262Z,69.70
2019-05-19T08:56:02.373Z,70.90
2019-05-19T08:58:35.764Z,71.00
2019-05-19T09:01:06.319Z,71.20
2019-05-19T09:03:36.768Z,67.50
2019-05-19T09:06:07.347Z,65.50
2019-05-19T09:08:38.724Z,66.00
2019-05-19T09:11:10.173Z,60.60
2019-05-19T09:13:40.680Z,60.10
2019-05-19T09:16:11.142Z,58.80
2019-05-19T09:18:41.612Z,59.10
2019-05-19T09:21:12.080Z,57.50
2019-05-19T09:23:42.557Z,56.40
2019-05-19T09:26:14.819Z,56.40
2019-05-19T09:28:45.307Z,55.10
2019-05-19T09:31:15.778Z,53.50
2019-05-19T09:33:48.543Z,56.30
2019-05-19T09:36:20.106Z,57.10
2019-05-19T09:38:50.502Z,55.70
2019-05-19T09:41:21.841Z,54.80
2019-05-19T09:43:53.272Z,54.90
2019-05-19T09:46:23.851Z,56.10
2019-05-19T09:49:12.103Z,54.70
2019-05-19T09:51:42.606Z,56.70
2019-05-19T09:54:13.078Z,58.80
2019-05-19T09:56:43.567Z,61.70
2019-05-19T09:59:14.877Z,73.10
2019-05-19T10:01:45.842Z,99.90
2019-05-19T10:04:16.363Z,99.90
2019-05-19T10:06:48.295Z,99.90
2019-05-19T10:09:22.221Z,99.90
2019-05-19T10:12:06.900Z,99.90
2019-05-19T10:14:37.886Z,99.90
2019-05-19T10:17:08.363Z,99.90
2019-05-19T10:19:38.938Z,99.90
2019-05-19T10:22:09.524Z,99.90
2019-05-19T10:24:40.053Z,99.90
2019-05-19T10:27:10.770Z,99.90
2019-05-19T10:29:41.297Z,99.90
2019-05-19T10:32:11.871Z,99.90
2019-05-19T10:34:42.448Z,99.90
2019-05-19T10:37:13.567Z,99.90
2019-05-19T10:39:44.084Z,99.90
2019-05-19T10:42:14.730Z,99.90
2019-05-19T10:44:45.158Z,99.90
2019-05-19T10:47:17.157Z,99.90
2019-05-19T10:49:47.660Z,99.90
2019-05-19T10:52:18.464Z,99.90
2019-05-19T10:54:49.668Z,99.90
2019-05-19T10:57:20.196Z,99.90
2019-05-19T10:59:51.390Z,99.90
2019-05-19T11:02:23.563Z,99.90
2019-05-19T11:04:54.062Z,99.90
2019-05-19T11:07:24.509Z,99.90
2019-05-19T11:09:56.671Z,99.90
2019-05-19T11:12:28.465Z,99.90
2019-05-19T11:14:59.119Z,99.90
2019-05-19T11:17:30.094Z,99.90
2019-05-19T11:20:00.681Z,99.90
2019-05-19T11:22:32.838Z,99.90
2019-05-19T11:25:03.461Z,99.90
2019-05-19T11:27:34.020Z,99.90
2019-05-19T11:30:06.423Z,99.90
2019-05-19T11:32:36.807Z,99.90
2019-05-19T11:35:08.618Z,99.90
2019-05-19T11:43:52.452Z,99.90
2019-05-19T11:46:22.986Z,99.90
2019-05-19T11:48:53.415Z,99.90
2019-05-19T11:51:24.251Z,99.90
2019-05-19T11:53:54.994Z,99.90
2019-05-19T11:56:26.066Z,99.90
2019-05-19T11:58:57.364Z,99.90
2019-05-19T12:01:28.868Z,99.90
2019-05-19T12:03:59.283Z,99.90
2019-05-19T12:06:38.810Z,99.90
2019-05-19T12:09:01.924Z,99.90
2019-05-19T12:11:32.908Z,99.90
2019-05-19T12:14:03.411Z,99.90
2019-05-19T12:16:33.910Z,99.90
2019-05-19T12:19:04.356Z,99.90
2019-05-19T12:21:34.877Z,99.90
2019-05-19T12:24:05.333Z,99.90
2019-05-19T12:26:35.874Z,99.90
2019-05-19T12:29:06.349Z,99.90
2019-05-19T12:31:37.567Z,99.90
2019-05-19T12:34:08.098Z,99.90
2019-05-19T12:36:38.559Z,99.90
2019-05-19T12:39:09.520Z,99.90
2019-05-19T12:41:39.884Z,99.90
2019-05-19T12:44:12.687Z,99.90
2019-05-19T12:46:43.362Z,99.90
2019-05-19T12:49:14.791Z,99.90
2019-05-19T12:51:45.378Z,99.90
2019-05-19T12:54:15.785Z,99.90
2019-05-19T12:56:47.020Z,99.90
2019-05-19T12:59:18.094Z,99.90
2019-05-19T13:01:49.565Z,99.90
2019-05-19T13:04:20.749Z,99.90
2019-05-19T13:06:51.323Z,99.90
2019-05-19T13:09:23.326Z,99.90
2019-05-19T13:11:53.786Z,99.90
2019-05-19T13:14:24.240Z,99.90
2019-05-19T13:16:54.630Z,99.90
2019-05-19T13:19:25.085Z,99.90
2019-05-19T13:21:55.706Z,99.90
2019-05-19T13:24:27.522Z,99.90
2019-05-19T13:26:57.972Z,99.90
2019-05-19T13:29:28.421Z,99.90
2019-05-19T13:31:59.625Z,99.90
2019-05-19T13:34:30.037Z,99.90
2019-05-19T13:37:00.489Z,99.90
2019-05-19T13:39:31.057Z,99.90
2019-05-19T13:42:01.410Z,99.90
2019-05-19T13:44:32.985Z,99.90
2019-05-19T13:47:03.456Z,99.90
2019-05-19T13:49:33.954Z,99.90
2019-05-19T13:52:05.782Z,99.90
2019-05-19T13:54:36.234Z,99.90
2019-05-19T13:57:12.235Z,99.90
2019-05-19T13:59:41.097Z,99.90
2019-05-19T14:02:13.280Z,99.90
2019-05-19T14:04:43.840Z,99.90
2019-05-19T14:07:14.310Z,99.90
2019-05-19T14:09:44.772Z,99.90
2019-05-19T14:12:15.267Z,99.90
2019-05-19T14:14:45.832Z,99.90
2019-05-19T14:17:16.358Z,99.90
2019-05-19T14:19:46.848Z,99.90
2019-05-19T14:22:17.758Z,99.90
2019-05-19T14:24:49.346Z,99.90
2019-05-19T14:27:29.434Z,99.90
2019-05-19T14:29:53.719Z,99.90
2019-05-19T14:32:24.091Z,99.90
2019-05-19T14:35:00.851Z,99.90
2019-05-19T14:37:31.402Z,99.90
2019-05-19T14:40:03.245Z,99.90
2019-05-19T14:42:51.799Z,99.90
2019-05-19T14:45:24.197Z,99.90
2019-05-19T14:47:54.801Z,99.90
2019-05-19T14:50:26.744Z,99.90
2019-05-19T14:52:57.467Z,99.90
2019-05-19T14:55:31.232Z,99.90
2019-05-19T14:58:01.699Z,99.90
2019-05-19T15:00:34.132Z,99.90
2019-05-19T15:03:06.640Z,99.90
2019-05-19T15:05:37.147Z,99.90
2019-05-19T15:08:08.773Z,99.90
2019-05-19T15:10:39.380Z,99.90
2019-05-19T15:13:11.407Z,99.90
2019-05-19T15:15:41.891Z,99.90
2019-05-19T15:18:12.274Z,99.90
2019-05-19T15:20:43.875Z,99.90
2019-05-19T15:23:14.673Z,99.90
2019-05-19T15:25:45.186Z,99.90
2019-05-19T15:28:17.727Z,99.90
2019-05-19T15:30:48.356Z,99.90
2019-05-19T15:33:19.716Z,99.90
2019-05-19T15:35:50.252Z,99.90
2019-05-19T15:38:21.688Z,99.90
2019-05-19T15:40:54.872Z,99.90
2019-05-19T15:43:26.634Z,99.90
2019-05-19T15:48:37.346Z,99.90
2019-05-19T15:51:07.906Z,99.90
2019-05-19T15:53:38.400Z,99.90
2019-05-19T15:56:10.508Z,99.90
2019-05-19T15:58:41.396Z,99.90
2019-05-19T16:01:11.995Z,99.90
2019-05-19T16:03:43.441Z,99.90
2019-05-19T16:06:13.995Z,99.90
2019-05-19T16:08:44.383Z,99.90
2019-05-19T16:11:15.575Z,99.90
2019-05-19T16:13:46.095Z,99.90
2019-05-19T16:16:16.816Z,99.90
2019-05-19T16:18:47.233Z,99.90
2019-05-19T16:21:17.643Z,99.90
2019-05-19T16:23:48.059Z,99.90
2019-05-19T16:26:18.446Z,99.90
2019-05-19T16:28:48.886Z,99.90
2019-05-19T16:31:21.205Z,99.90
2019-05-19T16:33:51.716Z,99.90
2019-05-19T16:36:22.087Z,99.90
2019-05-19T16:38:52.893Z,99.90
2019-05-19T16:41:23.450Z,99.90
2019-05-19T16:43:54.016Z,99.90
2019-05-19T16:46:25.279Z,99.90
2019-05-19T16:48:55.877Z,99.90
2019-05-19T16:51:26.472Z,99.90
2019-05-19T16:53:59.265Z,99.90
2019-05-19T16:56:29.792Z,99.90
2019-05-19T16:59:00.365Z,99.90
2019-05-19T17:01:30.942Z,99.90
2019-05-19T17:04:02.389Z,99.90
2019-05-19T17:06:32.998Z,99.90
2019-05-19T17:09:03.770Z,99.90
2019-05-19T17:11:34.214Z,99.90
2019-05-19T17:14:05.129Z,99.90
2019-05-19T17:16:36.413Z,99.90
2019-05-19T17:19:06.835Z,99.90
2019-05-19T17:21:37.383Z,99.90
2019-05-19T17:24:08.091Z,99.90
2019-05-19T17:26:38.470Z,99.90
2019-05-19T17:29:10.039Z,99.90
2019-05-19T17:31:40.447Z,99.90
2019-05-19T17:34:10.878Z,99.90
2019-05-19T17:36:42.406Z,99.90
2019-05-19T17:39:14.605Z,99.90
2019-05-19T17:41:45.089Z,99.90
2019-05-19T17:44:15.592Z,99.90
2019-05-19T17:46:46.023Z,99.90
2019-05-19T17:49:16.449Z,99.90
2019-05-19T17:51:47.087Z,99.90
2019-05-19T17:54:20.138Z,99.90
2019-05-19T17:56:51.150Z,99.90
2019-05-19T17:59:23.648Z,99.90
2019-05-19T18:01:54.259Z,99.90
2019-05-19T18:04:27.318Z,99.90
2019-05-19T18:06:57.992Z,99.90
2019-05-19T18:09:28.870Z,99.90
2019-05-19T18:11:59.411Z,99.90
2019-05-19T18:14:30.336Z,99.90
2019-05-19T18:17:00.675Z,99.90
2019-05-19T18:19:31.610Z,99.90
2019-05-19T18:22:02.024Z,99.90
2019-05-19T18:24:33.326Z,99.90
2019-05-19T18:27:03.796Z,99.90
2019-05-19T18:29:34.751Z,99.90
2019-05-19T18:32:05.350Z,99.90
2019-05-19T18:34:36.481Z,99.90
2019-05-19T18:37:06.994Z,99.90
2019-05-19T18:39:37.481Z,99.90
2019-05-19T18:42:08.096Z,99.90
2019-05-19T18:44:38.636Z,99.90
2019-05-19T18:47:09.199Z,99.90
2019-05-19T18:49:40.624Z,99.90
2019-05-19T18:52:11.128Z,99.90
2019-05-19T18:54:41.705Z,99.90
2019-05-19T18:57:12.265Z,99.90
2019-05-19T18:59:47.259Z,99.90
2019-05-19T19:02:15.758Z,99.90
2019-05-19T19:04:47.282Z,99.90
2019-05-19T19:07:17.742Z,99.90
2019-05-19T19:09:49.395Z,99.90
2019-05-19T19:12:20.963Z,99.90
2019-05-19T19:14:51.477Z,99.90
2019-05-19T19:17:22.307Z,99.90
2019-05-19T19:19:53.872Z,99.90
2019-05-19T19:22:24.261Z,99.90
2019-05-19T19:24:54.676Z,99.90
2019-05-19T19:27:25.564Z,99.90
2019-05-19T19:30:03.692Z,99.90
2019-05-19T19:32:28.158Z,99.90
2019-05-19T19:34:59.737Z,99.90
2019-05-19T19:37:30.180Z,99.90
2019-05-19T19:40:00.676Z,99.90
2019-05-19T19:42:31.763Z,99.90
2019-05-19T19:45:04.223Z,99.90
2019-05-19T19:47:34.665Z,99.90
2019-05-19T19:50:07.372Z,99.90
2019-05-19T19:52:38.249Z,99.90
2019-05-19T19:55:10.033Z,99.90
2019-05-19T19:57:40.446Z,99.90
2019-05-19T20:00:18.373Z,99.90
2019-05-19T20:02:43.956Z,99.90
2019-05-19T20:05:16.150Z,99.90
2019-05-19T20:07:46.719Z,99.90
2019-05-19T20:10:17.298Z,99.90
2019-05-19T20:12:47.689Z,99.90
2019-05-19T20:15:18.301Z,99.90
2019-05-19T20:17:48.764Z,99.90
2019-05-19T20:20:19.311Z,99.90
2019-05-19T20:22:50.291Z,99.90
2019-05-19T20:25:20.864Z,99.90
2019-05-19T20:27:51.272Z,99.90
2019-05-19T20:30:34.190Z,99.90
2019-05-19T20:32:54.165Z,99.90
2019-05-19T20:35:24.745Z,99.90
2019-05-19T20:37:55.139Z,99.90
2019-05-19T20:40:26.129Z,99.90
2019-05-19T20:42:57.074Z,99.90
2019-05-19T20:45:27.852Z,99.90
2019-05-19T20:47:58.329Z,99.90
2019-05-19T20:50:28.940Z,99.90
2019-05-19T20:52:59.411Z,99.90
2019-05-19T20:55:29.907Z,99.90
2019-05-19T20:58:00.344Z,99.90
2019-05-19T21:00:33.235Z,99.90
2019-05-19T21:03:03.658Z,99.90
2019-05-19T21:05:35.147Z,99.90
2019-05-19T21:08:05.720Z,99.90
2019-05-19T21:10:36.281Z,99.90
2019-05-19T21:13:06.758Z,99.90
2019-05-19T21:15:37.371Z,99.90
2019-05-19T21:18:07.833Z,99.90
2019-05-19T21:20:38.314Z,99.90
2019-05-19T21:23:08.773Z,99.90
2019-05-19T21:25:39.812Z,99.90
2019-05-19T21:28:11.006Z,99.90
2019-05-19T21:30:41.439Z,99.90
2019-05-19T21:33:11.859Z,99.90
2019-05-19T21:35:42.237Z,99.90
2019-05-19T21:38:12.725Z,99.90
2019-05-19T21:40:43.155Z,99.90
2019-05-19T21:43:14.156Z,99.90
2019-05-19T21:45:44.611Z,99.90
2019-05-19T21:48:15.233Z,99.90
2019-05-19T21:50:45.703Z,99.90
2019-05-19T21:53:16.304Z,99.90
2019-05-19T21:55:48.573Z,99.90
2019-05-19T21:58:19.105Z,99.90
2019-05-19T22:00:51.245Z,99.90
2019-05-19T22:03:23.698Z,99.90
2019-05-19T22:05:55.081Z,99.90
2019-05-19T22:08:25.668Z,99.90
2019-05-19T22:10:56.150Z,99.90
2019-05-19T22:13:26.791Z,99.90
2019-05-19T22:16:12.159Z,99.90
2019-05-19T22:18:30.654Z,99.90
2019-05-19T22:21:01.407Z,99.90
2019-05-19T22:23:31.777Z,99.90
2019-05-19T22:26:02.191Z,99.90
2019-05-19T22:28:32.567Z,99.90
2019-05-19T22:31:04.134Z,99.90
2019-05-19T22:33:34.671Z,99.90
2019-05-19T22:36:05.284Z,99.90
2019-05-19T22:38:37.759Z,99.90
2019-05-19T22:41:08.355Z,99.90
2019-05-19T22:43:38.723Z,99.90
2019-05-19T22:46:09.268Z,99.90
2019-05-19T22:48:39.695Z,99.90
2019-05-19T22:51:10.152Z,99.90
2019-05-19T22:53:41.968Z,99.90
2019-05-19T22:56:14.691Z,99.90
2019-05-19T22:58:45.156Z,99.90
2019-05-19T23:01:15.683Z,99.90
2019-05-19T23:03:46.135Z,99.90
2019-05-19T23:06:17.075Z,99.90
2019-05-19T23:08:48.042Z,99.90
2019-05-19T23:11:18.458Z,99.90
2019-05-19T23:13:48.948Z,99.90
2019-05-19T23:16:19.509Z,99.90
2019-05-19T23:18:50.023Z,99.90
2019-05-19T23:21:20.559Z,99.90
2019-05-19T23:23:50.939Z,99.90
2019-05-19T23:26:21.322Z,99.90
2019-05-19T23:28:51.853Z,99.90
2019-05-19T23:31:22.330Z,99.90
2019-05-19T23:33:52.781Z,99.90
2019-05-19T23:36:23.461Z,99.90
2019-05-19T23:38:54.026Z,99.90
2019-05-19T23:41:24.502Z,99.90
2019-05-19T23:43:55.005Z,99.90
2019-05-19T23:46:25.512Z,99.90
2019-05-19T23:48:55.933Z,99.90
2019-05-19T23:51:26.402Z,99.90
2019-05-19T23:53:56.882Z,99.90
2019-05-19T23:56:27.393Z,99.90
